sensor_id;sensor_type;location;lat;lon;timestamp;P1;durP1;ratioP1;P2;durP2;ratioP2
2840;SDS011;53423;49.224;12.074;2022-12-18T00:01:47;59.17;;;29.40;;
2840;SDS011;53423;49.224;12.074;2022-12-18T00:04:16;66.30;;;31.60;;
2840;SDS011;53423;49.224;12.074;2022-12-18T00:06:48;58.40;;;28.60;;
2840;SDS011;53423;49.224;12.074;2022-12-18T00:09:16;56.73;;;27.43;;
2840;SDS011;53423;49.224;12.074;2022-12-18T00:11:44;59.60;;;28.57;;
2840;SDS011;53423;49.224;12.074;2022-12-18T00:14:14;59.07;;;27.80;;
2840;SDS011;53423;49.224;12.074;2022-12-18T00:16:43;54.27;;;26.93;;
2840;SDS011;53423;49.224;12.074;2022-12-18T00:19:12;55.40;;;26.07;;
2840;SDS011;53423;49.224;12.074;2022-12-18T00:21:41;52.20;;;24.50;;
2840;SDS011;53423;49.224;12.074;2022-12-18T00:24:10;52.87;;;25.73;;
2840;SDS011;53423;49.224;12.074;2022-12-18T00:26:38;52.70;;;26.43;;
2840;SDS011;53423;49.224;12.074;2022-12-18T00:29:07;56.50;;;26.90;;
2840;SDS011;53423;49.224;12.074;2022-12-18T00:31:41;48.60;;;24.47;;
2840;SDS011;53423;49.224;12.074;2022-12-18T00:34:09;53.33;;;26.13;;
2840;SDS011;53423;49.224;12.074;2022-12-18T00:36:38;56.03;;;25.77;;
2840;SDS011;53423;49.224;12.074;2022-12-18T00:39:07;53.27;;;25.57;;
2840;SDS011;53423;49.224;12.074;2022-12-18T00:41:35;53.70;;;24.03;;
2840;SDS011;53423;49.224;12.074;2022-12-18T00:44:20;48.90;;;24.70;;
2840;SDS011;53423;49.224;12.074;2022-12-18T00:46:49;50.83;;;23.37;;
2840;SDS011;53423;49.224;12.074;2022-12-18T00:49:18;51.43;;;25.10;;
2840;SDS011;53423;49.224;12.074;2022-12-18T00:51:46;47.40;;;24.73;;
2840;SDS011;53423;49.224;12.074;2022-12-18T00:54:15;49.13;;;23.77;;
2840;SDS011;53423;49.224;12.074;2022-12-18T00:56:44;50.07;;;24.00;;
2840;SDS011;53423;49.224;12.074;2022-12-18T00:59:15;47.97;;;23.33;;
2840;SDS011;53423;49.224;12.074;2022-12-18T01:01:43;41.50;;;21.53;;
2840;SDS011;53423;49.224;12.074;2022-12-18T01:04:14;41.17;;;21.83;;
2840;SDS011;53423;49.224;12.074;2022-12-18T01:06:42;42.07;;;21.13;;
2840;SDS011;53423;49.224;12.074;2022-12-18T01:09:10;41.50;;;20.70;;
2840;SDS011;53423;49.224;12.074;2022-12-18T01:11:38;42.80;;;20.97;;
2840;SDS011;53423;49.224;12.074;2022-12-18T01:14:06;46.13;;;21.40;;
2840;SDS011;53423;49.224;12.074;2022-12-18T01:16:34;42.43;;;21.10;;
2840;SDS011;53423;49.224;12.074;2022-12-18T01:19:02;39.63;;;20.80;;
2840;SDS011;53423;49.224;12.074;2022-12-18T01:21:32;45.90;;;22.13;;
2840;SDS011;53423;49.224;12.074;2022-12-18T01:24:00;38.83;;;19.37;;
2840;SDS011;53423;49.224;12.074;2022-12-18T01:26:28;44.37;;;22.53;;
2840;SDS011;53423;49.224;12.074;2022-12-18T01:28:57;43.57;;;21.93;;
2840;SDS011;53423;49.224;12.074;2022-12-18T01:31:26;39.37;;;19.43;;
2840;SDS011;53423;49.224;12.074;2022-12-18T01:33:56;39.00;;;20.17;;
2840;SDS011;53423;49.224;12.074;2022-12-18T01:36:25;42.57;;;20.70;;
2840;SDS011;53423;49.224;12.074;2022-12-18T01:38:55;38.27;;;19.87;;
2840;SDS011;53423;49.224;12.074;2022-12-18T01:41:25;39.03;;;20.60;;
2840;SDS011;53423;49.224;12.074;2022-12-18T01:47:30;35.93;;;18.83;;
2840;SDS011;53423;49.224;12.074;2022-12-18T01:50:02;34.30;;;19.20;;
2840;SDS011;53423;49.224;12.074;2022-12-18T01:52:31;37.17;;;18.93;;
2840;SDS011;53423;49.224;12.074;2022-12-18T01:55:03;36.37;;;18.73;;
2840;SDS011;53423;49.224;12.074;2022-12-18T01:57:33;37.33;;;19.67;;
2840;SDS011;53423;49.224;12.074;2022-12-18T02:00:03;34.93;;;18.70;;
2840;SDS011;53423;49.224;12.074;2022-12-18T02:02:33;36.70;;;19.87;;
2840;SDS011;53423;49.224;12.074;2022-12-18T02:05:02;35.57;;;18.77;;
2840;SDS011;53423;49.224;12.074;2022-12-18T02:07:34;37.73;;;19.93;;
2840;SDS011;53423;49.224;12.074;2022-12-18T02:10:13;42.27;;;20.27;;
2840;SDS011;53423;49.224;12.074;2022-12-18T02:12:48;33.07;;;19.20;;
2840;SDS011;53423;49.224;12.074;2022-12-18T02:15:22;35.60;;;18.50;;
2840;SDS011;53423;49.224;12.074;2022-12-18T02:17:56;36.93;;;19.50;;
2840;SDS011;53423;49.224;12.074;2022-12-18T02:20:32;33.30;;;18.70;;
2840;SDS011;53423;49.224;12.074;2022-12-18T02:23:06;33.27;;;18.00;;
2840;SDS011;53423;49.224;12.074;2022-12-18T02:25:53;35.03;;;18.33;;
2840;SDS011;53423;49.224;12.074;2022-12-18T02:28:43;32.57;;;17.17;;
2840;SDS011;53423;49.224;12.074;2022-12-18T02:31:16;34.37;;;17.80;;
2840;SDS011;53423;49.224;12.074;2022-12-18T02:33:49;34.07;;;16.90;;
2840;SDS011;53423;49.224;12.074;2022-12-18T02:36:19;29.20;;;16.80;;
2840;SDS011;53423;49.224;12.074;2022-12-18T02:38:49;32.20;;;17.20;;
2840;SDS011;53423;49.224;12.074;2022-12-18T02:41:21;30.33;;;17.27;;
2840;SDS011;53423;49.224;12.074;2022-12-18T02:43:53;30.37;;;16.97;;
2840;SDS011;53423;49.224;12.074;2022-12-18T02:46:25;35.27;;;17.30;;
2840;SDS011;53423;49.224;12.074;2022-12-18T02:48:58;34.37;;;17.97;;
2840;SDS011;53423;49.224;12.074;2022-12-18T02:51:36;29.87;;;17.20;;
2840;SDS011;53423;49.224;12.074;2022-12-18T02:54:15;34.67;;;17.77;;
2840;SDS011;53423;49.224;12.074;2022-12-18T02:56:54;32.37;;;17.23;;
2840;SDS011;53423;49.224;12.074;2022-12-18T02:59:26;30.50;;;16.30;;
2840;SDS011;53423;49.224;12.074;2022-12-18T03:02:04;34.40;;;17.90;;
2840;SDS011;53423;49.224;12.074;2022-12-18T03:04:43;29.67;;;16.33;;
2840;SDS011;53423;49.224;12.074;2022-12-18T03:07:19;35.43;;;18.20;;
2840;SDS011;53423;49.224;12.074;2022-12-18T03:09:53;32.87;;;16.87;;
2840;SDS011;53423;49.224;12.074;2022-12-18T03:12:29;35.60;;;16.73;;
2840;SDS011;53423;49.224;12.074;2022-12-18T03:15:01;32.60;;;16.73;;
2840;SDS011;53423;49.224;12.074;2022-12-18T03:17:32;28.60;;;16.17;;
2840;SDS011;53423;49.224;12.074;2022-12-18T03:20:02;30.30;;;16.93;;
2840;SDS011;53423;49.224;12.074;2022-12-18T03:22:33;26.90;;;15.50;;
2840;SDS011;53423;49.224;12.074;2022-12-18T03:25:05;27.93;;;15.40;;
2840;SDS011;53423;49.224;12.074;2022-12-18T03:27:38;25.67;;;15.33;;
2840;SDS011;53423;49.224;12.074;2022-12-18T03:30:11;29.77;;;15.90;;
2840;SDS011;53423;49.224;12.074;2022-12-18T03:32:42;29.33;;;17.00;;
2840;SDS011;53423;49.224;12.074;2022-12-18T03:35:15;31.00;;;16.63;;
2840;SDS011;53423;49.224;12.074;2022-12-18T03:37:48;28.97;;;16.63;;
2840;SDS011;53423;49.224;12.074;2022-12-18T03:40:16;33.10;;;17.23;;
2840;SDS011;53423;49.224;12.074;2022-12-18T03:42:47;31.77;;;17.10;;
2840;SDS011;53423;49.224;12.074;2022-12-18T03:45:20;32.17;;;17.53;;
2840;SDS011;53423;49.224;12.074;2022-12-18T03:47:57;30.57;;;16.27;;
2840;SDS011;53423;49.224;12.074;2022-12-18T03:50:31;31.03;;;17.70;;
2840;SDS011;53423;49.224;12.074;2022-12-18T03:53:08;28.43;;;16.50;;
2840;SDS011;53423;49.224;12.074;2022-12-18T03:55:43;28.97;;;16.73;;
2840;SDS011;53423;49.224;12.074;2022-12-18T03:58:14;35.60;;;17.93;;
2840;SDS011;53423;49.224;12.074;2022-12-18T04:00:46;32.07;;;17.47;;
2840;SDS011;53423;49.224;12.074;2022-12-18T04:03:17;38.10;;;18.70;;
2840;SDS011;53423;49.224;12.074;2022-12-18T04:05:53;32.67;;;17.47;;
2840;SDS011;53423;49.224;12.074;2022-12-18T04:08:22;35.87;;;17.93;;
2840;SDS011;53423;49.224;12.074;2022-12-18T04:10:52;38.00;;;18.33;;
2840;SDS011;53423;49.224;12.074;2022-12-18T04:13:25;34.53;;;17.90;;
2840;SDS011;53423;49.224;12.074;2022-12-18T04:15:56;31.20;;;16.70;;
2840;SDS011;53423;49.224;12.074;2022-12-18T04:18:24;33.90;;;17.23;;
2840;SDS011;53423;49.224;12.074;2022-12-18T04:20:52;30.97;;;16.90;;
2840;SDS011;53423;49.224;12.074;2022-12-18T04:23:21;33.23;;;17.87;;
2840;SDS011;53423;49.224;12.074;2022-12-18T04:25:49;30.67;;;17.27;;
2840;SDS011;53423;49.224;12.074;2022-12-18T04:28:17;31.20;;;16.77;;
2840;SDS011;53423;49.224;12.074;2022-12-18T04:30:46;38.63;;;18.03;;
2840;SDS011;53423;49.224;12.074;2022-12-18T04:33:14;32.70;;;17.93;;
2840;SDS011;53423;49.224;12.074;2022-12-18T04:35:42;36.80;;;19.03;;
2840;SDS011;53423;49.224;12.074;2022-12-18T04:38:10;31.70;;;16.70;;
2840;SDS011;53423;49.224;12.074;2022-12-18T04:40:38;36.70;;;18.53;;
2840;SDS011;53423;49.224;12.074;2022-12-18T04:43:07;38.70;;;18.43;;
2840;SDS011;53423;49.224;12.074;2022-12-18T04:45:35;38.93;;;19.57;;
2840;SDS011;53423;49.224;12.074;2022-12-18T04:48:05;41.53;;;20.13;;
2840;SDS011;53423;49.224;12.074;2022-12-18T04:50:33;40.00;;;18.10;;
2840;SDS011;53423;49.224;12.074;2022-12-18T04:53:01;40.60;;;18.53;;
2840;SDS011;53423;49.224;12.074;2022-12-18T04:55:29;40.20;;;19.53;;
2840;SDS011;53423;49.224;12.074;2022-12-18T04:57:57;53.87;;;25.97;;
2840;SDS011;53423;49.224;12.074;2022-12-18T05:00:25;45.47;;;22.80;;
2840;SDS011;53423;49.224;12.074;2022-12-18T05:02:53;41.17;;;21.13;;
2840;SDS011;53423;49.224;12.074;2022-12-18T05:05:22;38.27;;;19.43;;
2840;SDS011;53423;49.224;12.074;2022-12-18T05:07:50;42.37;;;19.93;;
2840;SDS011;53423;49.224;12.074;2022-12-18T05:10:18;43.47;;;20.60;;
2840;SDS011;53423;49.224;12.074;2022-12-18T05:12:46;39.80;;;19.67;;
2840;SDS011;53423;49.224;12.074;2022-12-18T05:15:27;40.13;;;20.07;;
2840;SDS011;53423;49.224;12.074;2022-12-18T05:17:56;41.47;;;19.43;;
2840;SDS011;53423;49.224;12.074;2022-12-18T05:20:26;37.50;;;19.40;;
2840;SDS011;53423;49.224;12.074;2022-12-18T05:22:55;38.53;;;18.90;;
2840;SDS011;53423;49.224;12.074;2022-12-18T05:25:23;36.80;;;18.27;;
2840;SDS011;53423;49.224;12.074;2022-12-18T05:27:51;40.30;;;19.10;;
2840;SDS011;53423;49.224;12.074;2022-12-18T05:30:19;38.13;;;19.77;;
2840;SDS011;53423;49.224;12.074;2022-12-18T05:32:47;39.27;;;19.93;;
2840;SDS011;53423;49.224;12.074;2022-12-18T05:35:15;43.73;;;20.63;;
2840;SDS011;53423;49.224;12.074;2022-12-18T05:37:44;38.30;;;19.33;;
2840;SDS011;53423;49.224;12.074;2022-12-18T05:40:12;39.30;;;18.73;;
2840;SDS011;53423;49.224;12.074;2022-12-18T05:42:40;39.33;;;19.40;;
2840;SDS011;53423;49.224;12.074;2022-12-18T05:45:08;40.07;;;19.60;;
2840;SDS011;53423;49.224;12.074;2022-12-18T05:47:36;37.70;;;19.33;;
2840;SDS011;53423;49.224;12.074;2022-12-18T05:50:05;38.60;;;19.67;;
2840;SDS011;53423;49.224;12.074;2022-12-18T05:52:34;40.03;;;19.40;;
2840;SDS011;53423;49.224;12.074;2022-12-18T05:55:04;41.70;;;19.10;;
2840;SDS011;53423;49.224;12.074;2022-12-18T05:57:32;37.20;;;19.10;;
2840;SDS011;53423;49.224;12.074;2022-12-18T06:00:00;36.13;;;17.93;;
2840;SDS011;53423;49.224;12.074;2022-12-18T06:02:28;41.00;;;20.67;;
2840;SDS011;53423;49.224;12.074;2022-12-18T06:04:55;46.17;;;20.73;;
2840;SDS011;53423;49.224;12.074;2022-12-18T06:07:23;43.07;;;21.47;;
2840;SDS011;53423;49.224;12.074;2022-12-18T06:09:51;38.77;;;19.37;;
2840;SDS011;53423;49.224;12.074;2022-12-18T06:12:21;38.03;;;19.93;;
2840;SDS011;53423;49.224;12.074;2022-12-18T06:14:48;42.93;;;19.70;;
2840;SDS011;53423;49.224;12.074;2022-12-18T06:17:16;42.93;;;21.50;;
2840;SDS011;53423;49.224;12.074;2022-12-18T06:19:44;41.00;;;20.60;;
2840;SDS011;53423;49.224;12.074;2022-12-18T06:22:12;41.13;;;20.30;;
2840;SDS011;53423;49.224;12.074;2022-12-18T06:24:40;45.03;;;21.60;;
2840;SDS011;53423;49.224;12.074;2022-12-18T06:27:08;44.33;;;20.80;;
2840;SDS011;53423;49.224;12.074;2022-12-18T06:29:37;41.37;;;19.80;;
2840;SDS011;53423;49.224;12.074;2022-12-18T06:32:05;36.70;;;18.67;;
2840;SDS011;53423;49.224;12.074;2022-12-18T06:34:33;39.70;;;19.47;;
2840;SDS011;53423;49.224;12.074;2022-12-18T06:37:01;40.40;;;19.90;;
2840;SDS011;53423;49.224;12.074;2022-12-18T06:39:29;37.70;;;18.37;;
2840;SDS011;53423;49.224;12.074;2022-12-18T06:41:57;34.30;;;18.87;;
2840;SDS011;53423;49.224;12.074;2022-12-18T06:44:25;35.53;;;18.93;;
2840;SDS011;53423;49.224;12.074;2022-12-18T06:46:54;40.30;;;20.37;;
2840;SDS011;53423;49.224;12.074;2022-12-18T06:49:22;44.90;;;21.13;;
2840;SDS011;53423;49.224;12.074;2022-12-18T06:51:55;40.80;;;19.87;;
2840;SDS011;53423;49.224;12.074;2022-12-18T06:54:23;40.43;;;20.47;;
2840;SDS011;53423;49.224;12.074;2022-12-18T06:56:51;39.70;;;19.93;;
2840;SDS011;53423;49.224;12.074;2022-12-18T06:59:19;41.03;;;20.83;;
2840;SDS011;53423;49.224;12.074;2022-12-18T07:01:47;38.90;;;19.33;;
2840;SDS011;53423;49.224;12.074;2022-12-18T07:04:17;40.67;;;19.47;;
2840;SDS011;53423;49.224;12.074;2022-12-18T07:06:45;42.00;;;20.30;;
2840;SDS011;53423;49.224;12.074;2022-12-18T07:09:13;39.10;;;19.63;;
2840;SDS011;53423;49.224;12.074;2022-12-18T07:11:41;41.50;;;20.90;;
2840;SDS011;53423;49.224;12.074;2022-12-18T07:14:09;42.13;;;21.13;;
2840;SDS011;53423;49.224;12.074;2022-12-18T07:16:37;37.90;;;20.27;;
2840;SDS011;53423;49.224;12.074;2022-12-18T07:19:05;39.47;;;19.27;;
2840;SDS011;53423;49.224;12.074;2022-12-18T07:21:34;41.90;;;22.03;;
2840;SDS011;53423;49.224;12.074;2022-12-18T07:24:02;39.53;;;19.70;;
2840;SDS011;53423;49.224;12.074;2022-12-18T07:26:30;36.10;;;19.87;;
2840;SDS011;53423;49.224;12.074;2022-12-18T07:28:59;41.53;;;19.83;;
2840;SDS011;53423;49.224;12.074;2022-12-18T07:31:27;37.47;;;19.00;;
2840;SDS011;53423;49.224;12.074;2022-12-18T07:33:55;40.60;;;20.77;;
2840;SDS011;53423;49.224;12.074;2022-12-18T07:36:23;36.87;;;18.07;;
2840;SDS011;53423;49.224;12.074;2022-12-18T07:38:52;34.60;;;19.27;;
2840;SDS011;53423;49.224;12.074;2022-12-18T07:41:20;34.47;;;17.73;;
2840;SDS011;53423;49.224;12.074;2022-12-18T07:43:48;33.63;;;18.17;;
2840;SDS011;53423;49.224;12.074;2022-12-18T07:46:16;40.53;;;20.13;;
2840;SDS011;53423;49.224;12.074;2022-12-18T07:48:44;33.57;;;18.67;;
2840;SDS011;53423;49.224;12.074;2022-12-18T07:51:15;33.47;;;18.63;;
2840;SDS011;53423;49.224;12.074;2022-12-18T07:53:44;37.10;;;20.20;;
2840;SDS011;53423;49.224;12.074;2022-12-18T07:56:19;36.33;;;21.60;;
2840;SDS011;53423;49.224;12.074;2022-12-18T07:58:54;36.70;;;20.87;;
2840;SDS011;53423;49.224;12.074;2022-12-18T08:01:22;38.80;;;19.10;;
2840;SDS011;53423;49.224;12.074;2022-12-18T08:03:51;40.40;;;19.43;;
2840;SDS011;53423;49.224;12.074;2022-12-18T08:06:19;33.40;;;17.30;;
2840;SDS011;53423;49.224;12.074;2022-12-18T08:08:50;33.50;;;17.70;;
2840;SDS011;53423;49.224;12.074;2022-12-18T08:11:21;35.33;;;17.73;;
2840;SDS011;53423;49.224;12.074;2022-12-18T08:13:50;31.37;;;17.40;;
2840;SDS011;53423;49.224;12.074;2022-12-18T08:16:18;33.87;;;18.17;;
2840;SDS011;53423;49.224;12.074;2022-12-18T08:18:47;34.10;;;17.50;;
2840;SDS011;53423;49.224;12.074;2022-12-18T08:21:16;32.87;;;18.30;;
2840;SDS011;53423;49.224;12.074;2022-12-18T08:23:47;32.80;;;16.87;;
2840;SDS011;53423;49.224;12.074;2022-12-18T08:26:17;30.67;;;17.33;;
2840;SDS011;53423;49.224;12.074;2022-12-18T08:28:47;32.30;;;17.20;;
2840;SDS011;53423;49.224;12.074;2022-12-18T08:31:16;32.70;;;17.30;;
2840;SDS011;53423;49.224;12.074;2022-12-18T08:33:45;30.43;;;17.20;;
2840;SDS011;53423;49.224;12.074;2022-12-18T08:36:15;34.20;;;17.50;;
2840;SDS011;53423;49.224;12.074;2022-12-18T08:38:44;32.10;;;17.23;;
2840;SDS011;53423;49.224;12.074;2022-12-18T08:41:13;31.73;;;16.23;;
2840;SDS011;53423;49.224;12.074;2022-12-18T08:43:42;28.60;;;16.30;;
2840;SDS011;53423;49.224;12.074;2022-12-18T08:46:32;27.77;;;16.13;;
2840;SDS011;53423;49.224;12.074;2022-12-18T08:49:03;26.43;;;15.50;;
2840;SDS011;53423;49.224;12.074;2022-12-18T08:51:31;29.87;;;15.90;;
2840;SDS011;53423;49.224;12.074;2022-12-18T08:53:59;27.67;;;15.97;;
2840;SDS011;53423;49.224;12.074;2022-12-18T08:56:28;39.00;;;19.70;;
2840;SDS011;53423;49.224;12.074;2022-12-18T08:58:57;40.27;;;21.80;;
2840;SDS011;53423;49.224;12.074;2022-12-18T09:01:25;56.87;;;28.50;;
2840;SDS011;53423;49.224;12.074;2022-12-18T09:03:55;40.90;;;22.30;;
2840;SDS011;53423;49.224;12.074;2022-12-18T09:06:23;35.27;;;20.13;;
2840;SDS011;53423;49.224;12.074;2022-12-18T09:08:52;27.03;;;16.50;;
2840;SDS011;53423;49.224;12.074;2022-12-18T09:11:22;28.23;;;16.37;;
2840;SDS011;53423;49.224;12.074;2022-12-18T09:13:51;30.93;;;17.30;;
2840;SDS011;53423;49.224;12.074;2022-12-18T09:16:20;28.13;;;16.40;;
2840;SDS011;53423;49.224;12.074;2022-12-18T09:18:58;29.77;;;18.43;;
2840;SDS011;53423;49.224;12.074;2022-12-18T09:21:27;28.10;;;16.27;;
2840;SDS011;53423;49.224;12.074;2022-12-18T09:23:57;26.40;;;16.63;;
2840;SDS011;53423;49.224;12.074;2022-12-18T09:26:26;29.07;;;17.80;;
2840;SDS011;53423;49.224;12.074;2022-12-18T09:28:54;27.13;;;15.40;;
2840;SDS011;53423;49.224;12.074;2022-12-18T09:31:22;31.90;;;17.57;;
2840;SDS011;53423;49.224;12.074;2022-12-18T09:33:51;28.67;;;16.13;;
2840;SDS011;53423;49.224;12.074;2022-12-18T09:36:21;28.07;;;16.10;;
2840;SDS011;53423;49.224;12.074;2022-12-18T09:38:48;28.40;;;15.97;;
2840;SDS011;53423;49.224;12.074;2022-12-18T09:41:19;27.67;;;16.00;;
2840;SDS011;53423;49.224;12.074;2022-12-18T09:44:22;29.67;;;16.37;;
2840;SDS011;53423;49.224;12.074;2022-12-18T09:47:08;29.27;;;15.40;;
2840;SDS011;53423;49.224;12.074;2022-12-18T09:49:41;29.77;;;16.63;;
2840;SDS011;53423;49.224;12.074;2022-12-18T09:52:14;30.43;;;16.40;;
2840;SDS011;53423;49.224;12.074;2022-12-18T09:54:48;30.87;;;16.17;;
2840;SDS011;53423;49.224;12.074;2022-12-18T09:57:20;33.90;;;18.20;;
2840;SDS011;53423;49.224;12.074;2022-12-18T09:59:52;26.63;;;16.37;;
2840;SDS011;53423;49.224;12.074;2022-12-18T10:02:24;30.30;;;17.40;;
2840;SDS011;53423;49.224;12.074;2022-12-18T10:05:01;26.67;;;16.70;;
2840;SDS011;53423;49.224;12.074;2022-12-18T10:07:35;29.53;;;17.17;;
2840;SDS011;53423;49.224;12.074;2022-12-18T10:10:14;25.13;;;16.07;;
2840;SDS011;53423;49.224;12.074;2022-12-18T10:12:55;26.10;;;16.10;;
2840;SDS011;53423;49.224;12.074;2022-12-18T10:15:32;25.10;;;15.70;;
2840;SDS011;53423;49.224;12.074;2022-12-18T10:18:13;28.33;;;16.23;;
2840;SDS011;53423;49.224;12.074;2022-12-18T10:20:52;25.40;;;15.20;;
2840;SDS011;53423;49.224;12.074;2022-12-18T10:23:26;44.33;;;24.93;;
2840;SDS011;53423;49.224;12.074;2022-12-18T10:25:59;50.40;;;28.20;;
2840;SDS011;53423;49.224;12.074;2022-12-18T10:28:30;46.70;;;25.60;;
2840;SDS011;53423;49.224;12.074;2022-12-18T10:30:59;49.53;;;26.77;;
2840;SDS011;53423;49.224;12.074;2022-12-18T10:33:28;34.27;;;21.13;;
2840;SDS011;53423;49.224;12.074;2022-12-18T10:35:58;38.87;;;22.47;;
2840;SDS011;53423;49.224;12.074;2022-12-18T10:38:28;29.53;;;17.53;;
2840;SDS011;53423;49.224;12.074;2022-12-18T10:40:58;31.40;;;19.40;;
2840;SDS011;53423;49.224;12.074;2022-12-18T10:43:28;27.40;;;15.57;;
2840;SDS011;53423;49.224;12.074;2022-12-18T10:45:58;26.17;;;16.60;;
2840;SDS011;53423;49.224;12.074;2022-12-18T10:48:47;25.57;;;15.33;;
2840;SDS011;53423;49.224;12.074;2022-12-18T10:51:20;27.17;;;16.30;;
2840;SDS011;53423;49.224;12.074;2022-12-18T10:53:54;27.70;;;16.40;;
2840;SDS011;53423;49.224;12.074;2022-12-18T10:56:26;27.33;;;17.00;;
2840;SDS011;53423;49.224;12.074;2022-12-18T10:58:57;29.47;;;16.83;;
2840;SDS011;53423;49.224;12.074;2022-12-18T11:01:27;27.60;;;17.13;;
2840;SDS011;53423;49.224;12.074;2022-12-18T11:04:00;28.37;;;16.80;;
2840;SDS011;53423;49.224;12.074;2022-12-18T11:06:35;28.17;;;17.80;;
2840;SDS011;53423;49.224;12.074;2022-12-18T11:09:22;27.60;;;16.90;;
2840;SDS011;53423;49.224;12.074;2022-12-18T11:11:51;28.83;;;16.63;;
2840;SDS011;53423;49.224;12.074;2022-12-18T11:14:21;27.23;;;17.07;;
2840;SDS011;53423;49.224;12.074;2022-12-18T11:16:51;27.37;;;16.07;;
2840;SDS011;53423;49.224;12.074;2022-12-18T11:19:40;27.23;;;16.90;;
2840;SDS011;53423;49.224;12.074;2022-12-18T11:22:17;29.63;;;16.13;;
2840;SDS011;53423;49.224;12.074;2022-12-18T11:24:53;24.53;;;15.93;;
2840;SDS011;53423;49.224;12.074;2022-12-18T11:27:49;27.87;;;15.63;;
2840;SDS011;53423;49.224;12.074;2022-12-18T11:30:23;31.03;;;17.43;;
2840;SDS011;53423;49.224;12.074;2022-12-18T11:32:54;26.63;;;15.90;;
2840;SDS011;53423;49.224;12.074;2022-12-18T11:35:40;27.83;;;16.50;;
2840;SDS011;53423;49.224;12.074;2022-12-18T11:38:18;24.63;;;15.17;;
2840;SDS011;53423;49.224;12.074;2022-12-18T11:40:53;25.63;;;14.83;;
2840;SDS011;53423;49.224;12.074;2022-12-18T11:43:28;27.60;;;15.67;;
2840;SDS011;53423;49.224;12.074;2022-12-18T11:46:00;24.57;;;15.20;;
2840;SDS011;53423;49.224;12.074;2022-12-18T11:48:33;23.90;;;14.87;;
2840;SDS011;53423;49.224;12.074;2022-12-18T11:51:09;23.27;;;15.10;;
2840;SDS011;53423;49.224;12.074;2022-12-18T11:53:43;25.47;;;16.67;;
2840;SDS011;53423;49.224;12.074;2022-12-18T11:56:27;27.23;;;17.63;;
2840;SDS011;53423;49.224;12.074;2022-12-18T11:59:01;29.23;;;18.03;;
2840;SDS011;53423;49.224;12.074;2022-12-18T12:01:39;28.73;;;17.37;;
2840;SDS011;53423;49.224;12.074;2022-12-18T12:07:25;25.97;;;16.63;;
2840;SDS011;53423;49.224;12.074;2022-12-18T12:10:06;26.10;;;15.37;;
2840;SDS011;53423;49.224;12.074;2022-12-18T12:12:51;22.87;;;15.73;;
2840;SDS011;53423;49.224;12.074;2022-12-18T12:15:33;27.10;;;16.17;;
2840;SDS011;53423;49.224;12.074;2022-12-18T12:18:15;22.90;;;15.33;;
2840;SDS011;53423;49.224;12.074;2022-12-18T12:20:51;17.33;;;12.13;;
2840;SDS011;53423;49.224;12.074;2022-12-18T12:23:29;15.97;;;11.60;;
2840;SDS011;53423;49.224;12.074;2022-12-18T12:26:08;18.17;;;12.50;;
2840;SDS011;53423;49.224;12.074;2022-12-18T12:28:52;18.13;;;12.37;;
2840;SDS011;53423;49.224;12.074;2022-12-18T12:31:42;16.93;;;12.10;;
2840;SDS011;53423;49.224;12.074;2022-12-18T12:34:19;15.93;;;11.00;;
2840;SDS011;53423;49.224;12.074;2022-12-18T12:36:54;17.43;;;11.93;;
2840;SDS011;53423;49.224;12.074;2022-12-18T12:39:32;15.90;;;10.83;;
2840;SDS011;53423;49.224;12.074;2022-12-18T12:42:04;17.83;;;12.73;;
2840;SDS011;53423;49.224;12.074;2022-12-18T12:44:55;18.27;;;12.63;;
2840;SDS011;53423;49.224;12.074;2022-12-18T12:47:26;17.40;;;11.80;;
2840;SDS011;53423;49.224;12.074;2022-12-18T12:49:58;17.67;;;11.67;;
2840;SDS011;53423;49.224;12.074;2022-12-18T12:52:32;16.57;;;11.83;;
2840;SDS011;53423;49.224;12.074;2022-12-18T12:55:05;17.40;;;11.97;;
2840;SDS011;53423;49.224;12.074;2022-12-18T12:57:43;17.17;;;12.07;;
2840;SDS011;53423;49.224;12.074;2022-12-18T13:00:18;16.97;;;12.73;;
2840;SDS011;53423;49.224;12.074;2022-12-18T13:02:50;22.93;;;15.97;;
2840;SDS011;53423;49.224;12.074;2022-12-18T13:05:25;23.37;;;15.83;;
2840;SDS011;53423;49.224;12.074;2022-12-18T13:08:00;27.83;;;17.53;;
2840;SDS011;53423;49.224;12.074;2022-12-18T13:10:33;24.07;;;15.37;;
2840;SDS011;53423;49.224;12.074;2022-12-18T13:13:03;28.33;;;17.13;;
2840;SDS011;53423;49.224;12.074;2022-12-18T13:15:37;26.20;;;16.43;;
2840;SDS011;53423;49.224;12.074;2022-12-18T13:18:14;18.93;;;12.90;;
2840;SDS011;53423;49.224;12.074;2022-12-18T13:20:46;21.00;;;13.63;;
2840;SDS011;53423;49.224;12.074;2022-12-18T13:23:29;22.70;;;14.13;;
2840;SDS011;53423;49.224;12.074;2022-12-18T13:29:03;23.13;;;15.17;;
2840;SDS011;53423;49.224;12.074;2022-12-18T13:34:28;20.73;;;14.30;;
2840;SDS011;53423;49.224;12.074;2022-12-18T13:40:00;21.50;;;15.23;;
2840;SDS011;53423;49.224;12.074;2022-12-18T13:42:35;22.93;;;14.30;;
2840;SDS011;53423;49.224;12.074;2022-12-18T13:45:36;19.97;;;13.37;;
2840;SDS011;53423;49.224;12.074;2022-12-18T13:48:14;23.70;;;14.67;;
2840;SDS011;53423;49.224;12.074;2022-12-18T13:50:49;18.90;;;13.10;;
2840;SDS011;53423;49.224;12.074;2022-12-18T13:53:21;18.60;;;13.80;;
2840;SDS011;53423;49.224;12.074;2022-12-18T13:55:53;22.17;;;14.30;;
2840;SDS011;53423;49.224;12.074;2022-12-18T13:58:22;21.37;;;16.63;;
2840;SDS011;53423;49.224;12.074;2022-12-18T14:00:50;24.87;;;17.53;;
2840;SDS011;53423;49.224;12.074;2022-12-18T14:03:21;22.87;;;15.27;;
2840;SDS011;53423;49.224;12.074;2022-12-18T14:06:02;22.87;;;15.27;;
2840;SDS011;53423;49.224;12.074;2022-12-18T14:08:35;22.87;;;15.47;;
2840;SDS011;53423;49.224;12.074;2022-12-18T14:11:07;22.80;;;16.27;;
2840;SDS011;53423;49.224;12.074;2022-12-18T14:13:47;20.20;;;15.03;;
2840;SDS011;53423;49.224;12.074;2022-12-18T14:16:16;19.87;;;14.20;;
2840;SDS011;53423;49.224;12.074;2022-12-18T14:18:47;22.50;;;14.23;;
2840;SDS011;53423;49.224;12.074;2022-12-18T14:21:23;22.60;;;14.77;;
2840;SDS011;53423;49.224;12.074;2022-12-18T14:24:03;30.57;;;19.37;;
2840;SDS011;53423;49.224;12.074;2022-12-18T14:26:43;91.77;;;43.30;;
2840;SDS011;53423;49.224;12.074;2022-12-18T14:29:21;67.77;;;34.73;;
2840;SDS011;53423;49.224;12.074;2022-12-18T14:32:04;50.93;;;29.20;;
2840;SDS011;53423;49.224;12.074;2022-12-18T14:34:44;22.13;;;16.57;;
2840;SDS011;53423;49.224;12.074;2022-12-18T14:37:13;23.40;;;16.80;;
2840;SDS011;53423;49.224;12.074;2022-12-18T14:39:55;21.03;;;15.10;;
2840;SDS011;53423;49.224;12.074;2022-12-18T14:42:26;24.67;;;17.07;;
2840;SDS011;53423;49.224;12.074;2022-12-18T14:48:08;24.83;;;16.47;;
2840;SDS011;53423;49.224;12.074;2022-12-18T14:50:42;22.83;;;17.03;;
2840;SDS011;53423;49.224;12.074;2022-12-18T14:53:18;21.00;;;15.63;;
2840;SDS011;53423;49.224;12.074;2022-12-18T14:55:50;18.33;;;13.53;;
2840;SDS011;53423;49.224;12.074;2022-12-18T14:58:18;20.03;;;13.47;;
2840;SDS011;53423;49.224;12.074;2022-12-18T15:00:46;22.40;;;14.43;;
2840;SDS011;53423;49.224;12.074;2022-12-18T15:03:15;19.83;;;13.60;;
2840;SDS011;53423;49.224;12.074;2022-12-18T15:05:49;18.33;;;13.13;;
2840;SDS011;53423;49.224;12.074;2022-12-18T15:08:28;17.33;;;12.60;;